createdAt,value
2024-02-15T00:00:24.054Z,23.88
2024-02-15T00:02:51.106Z,24.10
2024-02-15T00:05:18.264Z,22.52
2024-02-15T00:07:45.379Z,21.80
2024-02-15T00:10:12.711Z,22.40
2024-02-15T00:12:40.097Z,23.80
2024-02-15T00:15:07.546Z,22.92
2024-02-15T00:17:37.150Z,23.40
2024-02-15T00:20:11.122Z,24.00
2024-02-15T00:22:38.797Z,24.63
2024-02-15T00:25:07.515Z,23.42
2024-02-15T00:27:36.644Z,22.85
2024-02-15T00:30:09.906Z,22.88
2024-02-15T00:32:38.249Z,22.90
2024-02-15T00:35:10.934Z,24.23
2024-02-15T00:37:39.223Z,24.23
2024-02-15T00:40:07.131Z,26.42
2024-02-15T00:42:34.457Z,24.63
2024-02-15T00:45:03.734Z,28.25
2024-02-15T00:47:30.961Z,29.77
2024-02-15T00:50:00.388Z,30.02
2024-02-15T00:52:30.629Z,30.50
2024-02-15T00:54:58.082Z,30.90
2024-02-15T00:57:25.104Z,30.55
2024-02-15T00:59:53.390Z,30.75
2024-02-15T01:02:20.379Z,29.90
2024-02-15T01:04:47.675Z,29.67
2024-02-15T01:07:14.830Z,29.83
2024-02-15T01:09:41.936Z,30.08
2024-02-15T01:12:09.171Z,28.98
2024-02-15T01:14:36.246Z,30.30
2024-02-15T01:17:03.445Z,28.77
2024-02-15T01:19:31.776Z,29.63
2024-02-15T01:22:01.688Z,30.42
2024-02-15T01:24:29.758Z,28.25
2024-02-15T01:26:56.781Z,29.38
2024-02-15T01:29:23.936Z,29.63
2024-02-15T01:31:50.962Z,28.67
2024-02-15T01:34:21.000Z,29.42
2024-02-15T01:36:49.891Z,29.83
2024-02-15T01:39:17.431Z,31.25
2024-02-15T01:41:52.766Z,30.73
2024-02-15T01:44:21.907Z,30.50
2024-02-15T01:46:50.841Z,29.60
2024-02-15T01:49:18.275Z,29.33
2024-02-15T01:51:46.762Z,29.67
2024-02-15T01:54:16.961Z,29.23
2024-02-15T01:56:45.186Z,28.45
2024-02-15T01:59:16.230Z,29.17
2024-02-15T02:04:14.290Z,26.23
2024-02-15T02:06:42.691Z,26.75
2024-02-15T02:09:14.419Z,29.77
2024-02-15T02:11:42.531Z,27.10
2024-02-15T02:14:10.116Z,26.67
2024-02-15T02:16:37.150Z,24.83
2024-02-15T02:19:12.385Z,26.17
2024-02-15T02:21:41.298Z,26.52
2024-02-15T02:24:15.613Z,26.83
2024-02-15T02:26:43.128Z,27.58
2024-02-15T02:29:10.965Z,27.38
2024-02-15T02:31:38.850Z,26.15
2024-02-15T02:34:07.956Z,28.20
2024-02-15T02:36:35.203Z,28.25
2024-02-15T02:39:02.747Z,29.15
2024-02-15T02:41:30.100Z,28.02
2024-02-15T02:43:58.494Z,27.55
2024-02-15T02:46:27.097Z,28.75
2024-02-15T02:48:54.286Z,30.58
2024-02-15T02:51:21.488Z,28.80
2024-02-15T02:53:49.293Z,29.30
2024-02-15T02:56:16.453Z,28.75
2024-02-15T02:58:43.899Z,30.20
2024-02-15T03:01:14.741Z,32.13
2024-02-15T03:03:41.966Z,29.98
2024-02-15T03:06:09.112Z,29.90
2024-02-15T03:08:36.205Z,32.53
2024-02-15T03:11:03.292Z,31.50
2024-02-15T03:13:31.703Z,31.77
2024-02-15T03:15:59.730Z,32.45
2024-02-15T03:18:26.879Z,33.97
2024-02-15T03:20:54.063Z,34.35
2024-02-15T03:23:21.102Z,34.78
2024-02-15T03:25:50.317Z,33.67
2024-02-15T03:28:17.484Z,35.30
2024-02-15T03:30:47.682Z,35.95
2024-02-15T03:33:14.994Z,37.67
2024-02-15T03:35:45.901Z,36.67
2024-02-15T03:38:16.294Z,36.75
2024-02-15T03:40:43.316Z,36.17
2024-02-15T03:43:10.717Z,36.15
2024-02-15T03:45:41.301Z,36.20
2024-02-15T03:48:15.953Z,35.90
2024-02-15T03:50:43.356Z,36.67
2024-02-15T03:53:18.008Z,35.85
2024-02-15T03:55:45.701Z,35.30
2024-02-15T03:58:13.552Z,33.10
2024-02-15T04:00:41.883Z,32.75
2024-02-15T04:03:10.857Z,32.50
2024-02-15T04:05:38.684Z,32.88
2024-02-15T04:08:10.973Z,31.15
2024-02-15T04:10:38.021Z,33.60
2024-02-15T04:13:06.076Z,34.42
2024-02-15T04:15:35.220Z,33.30
2024-02-15T04:18:04.143Z,32.97
2024-02-15T04:20:31.824Z,33.60
2024-02-15T04:23:01.049Z,32.63
2024-02-15T04:25:29.389Z,32.08
2024-02-15T04:27:59.234Z,31.45
2024-02-15T04:30:26.300Z,31.80
2024-02-15T04:32:54.414Z,34.53
2024-02-15T04:35:21.495Z,33.72
2024-02-15T04:37:49.236Z,32.60
2024-02-15T04:40:16.483Z,32.20
2024-02-15T04:42:46.437Z,32.95
2024-02-15T04:45:17.535Z,32.22
2024-02-15T04:50:15.138Z,32.40
2024-02-15T04:52:44.821Z,32.80
2024-02-15T04:55:12.029Z,32.63
2024-02-15T04:57:39.037Z,32.15
2024-02-15T05:00:12.427Z,33.03
2024-02-15T05:02:42.661Z,32.88
2024-02-15T05:05:14.842Z,32.42
2024-02-15T05:07:46.397Z,32.47
2024-02-15T05:10:16.753Z,31.10
2024-02-15T05:12:49.578Z,33.00
2024-02-15T05:15:19.810Z,31.60
2024-02-15T05:17:47.319Z,25.98
2024-02-15T05:20:15.140Z,31.42
2024-02-15T05:22:50.243Z,32.10
2024-02-15T05:25:25.192Z,31.83
2024-02-15T05:27:55.541Z,31.42
2024-02-15T05:30:24.364Z,32.95
2024-02-15T05:32:55.144Z,33.17
2024-02-15T05:35:23.033Z,31.88
2024-02-15T05:37:50.215Z,31.95
2024-02-15T05:40:20.680Z,31.63
2024-02-15T05:42:47.852Z,33.85
2024-02-15T05:45:27.347Z,32.75
2024-02-15T05:47:55.025Z,30.80
2024-02-15T05:50:22.660Z,32.13
2024-02-15T05:52:50.287Z,32.58
2024-02-15T05:55:20.082Z,32.45
2024-02-15T05:57:47.427Z,30.90
2024-02-15T06:00:22.068Z,32.53
2024-02-15T06:02:51.867Z,31.70
2024-02-15T06:05:20.037Z,31.00
2024-02-15T06:07:50.274Z,32.03
2024-02-15T06:10:17.640Z,32.22
2024-02-15T06:12:47.866Z,30.73
2024-02-15T06:15:17.250Z,30.88
2024-02-15T06:17:49.347Z,30.67
2024-02-15T06:20:22.685Z,31.77
2024-02-15T06:22:50.574Z,29.90
2024-02-15T06:25:22.926Z,29.85
2024-02-15T06:27:54.859Z,27.83
2024-02-15T06:30:40.080Z,30.90
2024-02-15T06:33:43.720Z,30.48
2024-02-15T06:36:29.170Z,30.85
2024-02-15T06:39:14.717Z,30.73
2024-02-15T06:41:42.630Z,30.23
2024-02-15T06:44:09.914Z,32.75
2024-02-15T06:46:38.583Z,31.08
2024-02-15T06:49:07.140Z,31.55
2024-02-15T06:51:34.449Z,30.23
2024-02-15T06:54:01.974Z,31.23
2024-02-15T06:56:31.436Z,31.27
2024-02-15T06:59:00.236Z,32.65
2024-02-15T07:01:27.470Z,30.95
2024-02-15T07:03:59.623Z,32.50
2024-02-15T07:06:28.738Z,31.20
2024-02-15T07:08:58.113Z,32.60
2024-02-15T07:11:25.426Z,33.13
2024-02-15T07:13:56.362Z,33.15
2024-02-15T07:18:50.759Z,32.25
2024-02-15T07:21:21.123Z,33.92
2024-02-15T07:23:48.363Z,32.42
2024-02-15T07:26:18.784Z,32.42
2024-02-15T07:28:47.701Z,32.35
2024-02-15T07:31:16.080Z,32.42
2024-02-15T07:33:44.892Z,33.90
2024-02-15T07:36:12.305Z,31.05
2024-02-15T07:38:39.330Z,30.35
2024-02-15T07:41:06.900Z,29.88
2024-02-15T07:43:34.848Z,30.63
2024-02-15T07:46:02.969Z,31.42
2024-02-15T07:48:30.113Z,31.73
2024-02-15T07:50:59.703Z,32.05
2024-02-15T07:53:26.867Z,31.13
2024-02-15T07:55:54.380Z,31.05
2024-02-15T07:58:22.285Z,29.90
2024-02-15T08:00:49.587Z,30.40
2024-02-15T08:03:17.905Z,29.58
2024-02-15T08:05:45.168Z,32.60
2024-02-15T08:08:13.547Z,29.95
2024-02-15T08:10:41.098Z,30.98
2024-02-15T08:13:10.307Z,29.75
2024-02-15T08:15:40.296Z,30.77
2024-02-15T08:18:10.926Z,29.25
2024-02-15T08:20:38.334Z,30.20
2024-02-15T08:23:05.579Z,28.45
2024-02-15T08:25:32.952Z,28.40
2024-02-15T08:28:00.073Z,29.85
2024-02-15T08:30:29.162Z,27.73
2024-02-15T08:32:57.755Z,29.63
2024-02-15T08:35:25.586Z,28.50
2024-02-15T08:37:54.548Z,27.40
2024-02-15T08:40:27.333Z,25.30
2024-02-15T08:42:54.858Z,27.35
2024-02-15T08:45:22.345Z,26.30
2024-02-15T08:47:51.446Z,25.10
2024-02-15T08:50:19.092Z,24.63
2024-02-15T08:52:46.523Z,24.10
2024-02-15T08:55:18.343Z,24.48
2024-02-15T08:57:45.954Z,23.88
2024-02-15T09:00:17.634Z,23.50
2024-02-15T09:02:48.356Z,23.25
2024-02-15T09:05:16.693Z,18.17
2024-02-15T09:07:45.188Z,22.00
2024-02-15T09:10:12.931Z,22.42
2024-02-15T09:12:41.695Z,21.67
2024-02-15T09:15:10.084Z,20.77
2024-02-15T09:17:41.471Z,21.08
2024-02-15T09:20:17.113Z,20.63
2024-02-15T09:22:53.717Z,19.30
2024-02-15T09:25:24.647Z,19.00
2024-02-15T09:30:19.739Z,18.15
2024-02-15T09:32:47.314Z,16.55
2024-02-15T09:35:15.443Z,18.15
2024-02-15T09:37:50.889Z,18.67
2024-02-15T09:40:19.721Z,17.75
2024-02-15T09:42:49.124Z,17.50
2024-02-15T09:45:17.984Z,16.58
2024-02-15T09:47:46.955Z,16.15
2024-02-15T09:50:16.735Z,16.55
2024-02-15T09:52:52.408Z,16.48
2024-02-15T09:55:22.951Z,16.05
2024-02-15T09:57:51.427Z,15.55
2024-02-15T10:00:19.154Z,15.43
2024-02-15T10:02:49.675Z,15.25
2024-02-15T10:05:18.663Z,14.38
2024-02-15T10:07:46.868Z,14.32
2024-02-15T10:10:21.857Z,14.20
2024-02-15T10:12:53.279Z,13.43
2024-02-15T10:15:34.262Z,13.95
2024-02-15T10:18:07.971Z,12.60
2024-02-15T10:20:38.630Z,13.05
2024-02-15T10:23:19.644Z,13.05
2024-02-15T10:25:50.585Z,13.73
2024-02-15T10:28:29.318Z,12.45
2024-02-15T10:30:56.652Z,12.90
2024-02-15T10:33:31.381Z,13.32
2024-02-15T10:36:14.921Z,11.98
2024-02-15T10:38:43.300Z,12.65
2024-02-15T10:41:12.472Z,12.45
2024-02-15T10:43:42.925Z,12.27
2024-02-15T10:46:12.301Z,12.48
2024-02-15T10:48:40.601Z,11.55
2024-02-15T10:51:12.508Z,10.60
2024-02-15T10:53:46.962Z,11.80
2024-02-15T10:56:27.594Z,10.80
2024-02-15T10:59:25.429Z,11.27
2024-02-15T11:01:58.816Z,10.02
2024-02-15T11:04:34.294Z,10.45
2024-02-15T11:07:05.357Z,10.77
2024-02-15T11:12:02.473Z,10.10
2024-02-15T11:14:33.966Z,10.10
2024-02-15T11:17:10.846Z,10.55
2024-02-15T11:19:40.927Z,10.38
2024-02-15T11:22:17.389Z,9.95
2024-02-15T11:24:54.088Z,10.15
2024-02-15T11:27:32.910Z,9.68
2024-02-15T11:30:16.788Z,9.65
2024-02-15T11:32:55.934Z,9.15
2024-02-15T11:35:27.663Z,9.23
2024-02-15T11:38:07.093Z,9.52
2024-02-15T11:40:43.474Z,9.30
2024-02-15T11:43:31.565Z,9.65
2024-02-15T11:46:02.224Z,8.98
2024-02-15T11:48:29.587Z,9.05
2024-02-15T11:50:58.443Z,10.00
2024-02-15T11:53:26.700Z,9.57
2024-02-15T11:56:06.508Z,9.73
2024-02-15T11:58:43.298Z,10.05
2024-02-15T12:01:29.687Z,9.10
2024-02-15T12:04:15.777Z,9.63
2024-02-15T12:07:06.181Z,9.23
2024-02-15T12:09:51.740Z,9.60
2024-02-15T12:12:40.186Z,10.02
2024-02-15T12:15:25.978Z,9.40
2024-02-15T12:18:11.829Z,9.13
2024-02-15T12:20:39.457Z,9.23
2024-02-15T12:23:09.234Z,8.95
2024-02-15T12:25:37.459Z,8.20
2024-02-15T12:28:06.864Z,9.23
2024-02-15T12:30:38.717Z,8.63
2024-02-15T12:33:14.475Z,9.65
2024-02-15T12:35:44.191Z,9.15
2024-02-15T12:38:16.997Z,8.77
2024-02-15T12:40:49.077Z,8.48
2024-02-15T12:43:17.150Z,8.30
2024-02-15T12:45:44.620Z,8.77
2024-02-15T12:48:12.513Z,9.05
2024-02-15T12:50:40.366Z,8.73
2024-02-15T12:53:10.083Z,8.88
2024-02-15T12:55:39.840Z,9.40
2024-02-15T12:58:17.639Z,9.90
2024-02-15T13:00:45.396Z,9.20
2024-02-15T13:03:16.670Z,8.57
2024-02-15T13:05:47.650Z,9.27
2024-02-15T13:08:16.213Z,8.65
2024-02-15T13:10:44.318Z,8.80
2024-02-15T13:13:18.537Z,8.70
2024-02-15T13:15:47.698Z,8.60
2024-02-15T13:18:16.614Z,8.07
2024-02-15T13:20:43.881Z,8.25
2024-02-15T13:23:26.476Z,7.80
2024-02-15T13:25:54.390Z,7.65
2024-02-15T13:28:22.717Z,7.78
2024-02-15T13:30:51.074Z,7.65
2024-02-15T13:33:18.766Z,8.10
2024-02-15T13:35:46.297Z,7.90
2024-02-15T13:38:25.058Z,7.38
2024-02-15T13:40:53.415Z,7.72
2024-02-15T13:43:20.649Z,7.40
2024-02-15T13:45:48.001Z,7.57
2024-02-15T13:48:16.641Z,7.25
2024-02-15T13:50:46.294Z,7.07
2024-02-15T13:53:16.931Z,7.22
2024-02-15T13:55:43.954Z,7.00
2024-02-15T13:58:14.354Z,6.45
2024-02-15T14:00:43.987Z,6.88
2024-02-15T14:03:12.646Z,6.95
2024-02-15T14:05:42.838Z,5.97
2024-02-15T14:08:12.029Z,6.77
2024-02-15T14:10:39.128Z,6.57
2024-02-15T14:13:07.171Z,7.63
2024-02-15T14:15:42.411Z,8.32
2024-02-15T14:18:21.252Z,7.15
2024-02-15T14:20:50.052Z,7.38
2024-02-15T14:23:17.469Z,7.88
2024-02-15T14:25:46.563Z,8.13
2024-02-15T14:28:16.434Z,8.68
2024-02-15T14:31:03.000Z,8.93
2024-02-15T14:38:31.781Z,9.25
2024-02-15T14:41:03.042Z,8.98
2024-02-15T14:43:30.561Z,8.85
2024-02-15T14:45:58.648Z,8.73
2024-02-15T14:48:27.546Z,8.25
2024-02-15T14:50:57.360Z,8.45
2024-02-15T14:53:25.654Z,8.18
2024-02-15T14:55:56.872Z,8.70
2024-02-15T14:58:24.114Z,8.45
2024-02-15T15:00:51.584Z,8.50
2024-02-15T15:03:21.834Z,8.88
2024-02-15T15:06:08.115Z,8.85
2024-02-15T15:08:53.739Z,8.52
2024-02-15T15:11:39.657Z,8.35
2024-02-15T15:14:07.392Z,8.80
2024-02-15T15:16:36.102Z,9.13
2024-02-15T15:19:04.993Z,9.25
2024-02-15T15:21:33.509Z,9.32
2024-02-15T15:24:00.932Z,8.02
2024-02-15T15:26:28.253Z,7.78
2024-02-15T15:28:58.217Z,7.30
2024-02-15T15:31:27.324Z,7.90
2024-02-15T15:33:57.333Z,7.65
2024-02-15T15:36:24.857Z,7.55
2024-02-15T15:38:55.163Z,8.35
2024-02-15T15:41:24.145Z,8.20
2024-02-15T15:43:54.872Z,8.32
2024-02-15T15:46:21.997Z,7.88
2024-02-15T15:48:51.647Z,7.95
2024-02-15T15:51:18.973Z,8.45
2024-02-15T15:53:48.157Z,8.05
2024-02-15T15:56:16.745Z,9.00
2024-02-15T15:58:54.753Z,8.35
2024-02-15T16:01:22.340Z,8.07
2024-02-15T16:03:51.296Z,8.60
2024-02-15T16:06:18.674Z,8.55
2024-02-15T16:08:47.474Z,10.05
2024-02-15T16:11:18.215Z,8.95
2024-02-15T16:13:48.305Z,8.93
2024-02-15T16:16:17.747Z,9.27
2024-02-15T16:18:48.795Z,8.63
2024-02-15T16:21:19.149Z,8.90
2024-02-15T16:23:46.983Z,8.57
2024-02-15T16:26:14.120Z,8.43
2024-02-15T16:28:48.520Z,8.43
2024-02-15T16:31:15.708Z,8.00
2024-02-15T16:33:43.052Z,8.45
2024-02-15T16:36:10.485Z,8.55
2024-02-15T16:38:43.270Z,8.30
2024-02-15T16:41:15.555Z,9.20
2024-02-15T16:43:47.705Z,8.15
2024-02-15T16:46:14.839Z,8.57
2024-02-15T16:48:43.081Z,8.50
2024-02-15T16:51:10.400Z,9.15
2024-02-15T16:53:41.982Z,9.13
2024-02-15T16:56:09.163Z,8.15
2024-02-15T16:58:36.145Z,8.73
2024-02-15T17:01:04.494Z,8.73
2024-02-15T17:03:31.687Z,8.25
2024-02-15T17:05:59.820Z,8.73
2024-02-15T17:08:27.076Z,7.97
2024-02-15T17:10:54.247Z,8.82
2024-02-15T17:13:23.509Z,7.53
2024-02-15T17:15:50.604Z,8.18
2024-02-15T17:18:24.643Z,7.30
2024-02-15T17:20:55.770Z,9.18
2024-02-15T17:23:25.061Z,8.10
2024-02-15T17:25:53.461Z,9.10
2024-02-15T17:28:21.135Z,8.15
2024-02-15T17:30:48.209Z,7.75
2024-02-15T17:33:15.603Z,8.02
2024-02-15T17:35:42.884Z,8.90
2024-02-15T17:38:12.319Z,8.63
2024-02-15T17:40:45.213Z,8.90
2024-02-15T17:43:13.304Z,7.22
2024-02-15T17:45:40.273Z,8.30
2024-02-15T17:48:09.102Z,8.00
2024-02-15T17:50:36.186Z,7.82
2024-02-15T17:53:03.215Z,7.13
2024-02-15T17:55:30.480Z,7.88
2024-02-15T17:58:02.483Z,7.65
2024-02-15T18:00:34.667Z,7.68
2024-02-15T18:03:04.815Z,7.93
2024-02-15T18:05:32.528Z,7.80
2024-02-15T18:08:02.362Z,7.72
2024-02-15T18:10:29.630Z,7.53
2024-02-15T18:12:57.992Z,7.22
2024-02-15T18:15:26.908Z,7.47
2024-02-15T18:17:57.548Z,7.65
2024-02-15T18:20:25.741Z,7.55
2024-02-15T18:22:54.197Z,6.85
2024-02-15T18:25:21.495Z,7.10
2024-02-15T18:27:49.037Z,6.68
2024-02-15T18:30:20.325Z,7.88
2024-02-15T18:32:48.571Z,7.10
2024-02-15T18:35:18.500Z,7.43
2024-02-15T18:37:47.704Z,7.50
2024-02-15T18:40:22.842Z,7.10
2024-02-15T18:42:55.428Z,7.35
2024-02-15T18:45:24.713Z,6.47
2024-02-15T18:47:53.095Z,6.78
2024-02-15T18:50:23.257Z,6.72
2024-02-15T18:52:58.719Z,7.00
2024-02-15T18:55:30.666Z,6.53
2024-02-15T18:57:58.758Z,6.35
2024-02-15T19:00:34.388Z,6.63
2024-02-15T19:03:09.403Z,6.97
2024-02-15T19:05:37.833Z,6.30
2024-02-15T19:08:05.240Z,7.03
2024-02-15T19:10:33.740Z,6.93
2024-02-15T19:13:03.024Z,7.15
2024-02-15T19:15:30.171Z,6.35
2024-02-15T19:17:57.404Z,6.50
2024-02-15T19:20:25.268Z,6.93
2024-02-15T19:22:52.360Z,6.75
2024-02-15T19:25:22.706Z,7.05
2024-02-15T19:27:51.146Z,7.20
2024-02-15T19:30:21.653Z,7.13
2024-02-15T19:32:50.810Z,7.50
2024-02-15T19:35:20.518Z,7.07
2024-02-15T19:37:49.535Z,7.38
2024-02-15T19:40:20.957Z,7.03
2024-02-15T19:42:50.339Z,6.82
2024-02-15T19:45:22.094Z,6.68
2024-02-15T19:47:51.128Z,7.28
2024-02-15T19:50:27.858Z,7.18
2024-02-15T19:52:55.657Z,7.35
2024-02-15T19:55:23.682Z,7.15
2024-02-15T19:57:50.895Z,7.18
2024-02-15T20:00:19.123Z,7.18
2024-02-15T20:02:47.280Z,6.70
2024-02-15T20:05:14.847Z,7.03
2024-02-15T20:07:42.340Z,8.13
2024-02-15T20:10:11.028Z,8.18
2024-02-15T20:12:38.682Z,7.45
2024-02-15T20:15:09.997Z,7.75
2024-02-15T20:17:37.912Z,7.07
2024-02-15T20:20:09.730Z,8.32
2024-02-15T20:22:41.545Z,7.85
2024-02-15T20:25:11.129Z,7.90
2024-02-15T20:27:39.834Z,7.80
2024-02-15T20:30:08.253Z,7.78
2024-02-15T20:32:35.497Z,7.75
2024-02-15T20:35:04.282Z,7.93
2024-02-15T20:37:35.395Z,7.72
2024-02-15T20:42:29.969Z,7.72
2024-02-15T20:44:57.778Z,9.07
2024-02-15T20:47:26.215Z,8.73
2024-02-15T20:49:53.789Z,8.05
2024-02-15T20:52:21.017Z,8.30
2024-02-15T20:54:49.395Z,8.85
2024-02-15T20:57:18.203Z,7.95
2024-02-15T20:59:45.468Z,8.93
2024-02-15T21:02:13.734Z,8.68
2024-02-15T21:04:40.910Z,7.82
2024-02-15T21:07:09.889Z,8.20
2024-02-15T21:09:41.168Z,8.55
2024-02-15T21:12:09.044Z,8.35
2024-02-15T21:14:36.725Z,7.18
2024-02-15T21:17:05.016Z,8.73
2024-02-15T21:19:32.081Z,8.38
2024-02-15T21:21:59.196Z,8.02
2024-02-15T21:24:29.672Z,8.23
2024-02-15T21:26:58.214Z,7.78
2024-02-15T21:29:25.241Z,7.70
2024-02-15T21:31:52.385Z,7.68
2024-02-15T21:34:20.145Z,8.50
2024-02-15T21:36:47.209Z,7.93
2024-02-15T21:39:14.671Z,8.23
2024-02-15T21:41:41.756Z,8.75
2024-02-15T21:44:13.163Z,7.97
2024-02-15T21:46:42.958Z,8.52
2024-02-15T21:49:10.431Z,8.35
2024-02-15T21:51:37.883Z,7.85
2024-02-15T21:54:05.162Z,7.97
2024-02-15T21:56:32.318Z,8.35
2024-02-15T21:58:59.398Z,7.97
2024-02-15T22:01:27.577Z,9.23
2024-02-15T22:03:55.026Z,8.00
2024-02-15T22:06:22.223Z,8.00
2024-02-15T22:20:16.591Z,7.35
2024-02-15T22:22:46.500Z,7.63
2024-02-15T22:25:25.598Z,8.02
2024-02-15T22:30:36.276Z,8.13
2024-02-15T22:33:03.723Z,8.25
2024-02-15T22:35:30.992Z,8.65
2024-02-15T22:37:58.174Z,8.48
2024-02-15T22:40:25.332Z,7.72
2024-02-15T22:42:52.516Z,9.05
2024-02-15T22:45:19.563Z,8.93
2024-02-15T22:47:47.977Z,8.65
2024-02-15T22:50:15.121Z,8.57
2024-02-15T22:52:43.677Z,8.20
2024-02-15T22:55:10.880Z,8.75
2024-02-15T22:57:48.387Z,8.95
2024-02-15T23:00:16.085Z,9.05
2024-02-15T23:02:44.620Z,8.82
2024-02-15T23:05:12.186Z,9.57
2024-02-15T23:07:39.738Z,9.85
2024-02-15T23:10:08.347Z,9.55
2024-02-15T23:12:37.460Z,9.25
2024-02-15T23:15:07.209Z,9.85
2024-02-15T23:17:34.406Z,8.85
2024-02-15T23:20:01.740Z,9.55
2024-02-15T23:22:29.000Z,9.15
2024-02-15T23:24:58.134Z,9.15
2024-02-15T23:27:25.773Z,8.85
2024-02-15T23:29:53.241Z,9.90
2024-02-15T23:32:20.349Z,9.43
2024-02-15T23:34:49.185Z,11.20
2024-02-15T23:37:36.728Z,10.55
2024-02-15T23:40:22.234Z,10.43
2024-02-15T23:42:53.477Z,9.82
2024-02-15T23:45:21.124Z,9.57
2024-02-15T23:47:48.437Z,9.30
2024-02-15T23:50:20.676Z,9.60
2024-02-15T23:52:48.207Z,8.98
2024-02-15T23:55:16.319Z,9.82
2024-02-15T23:57:45.500Z,9.18
